createdAt,value
2017-12-04T00:01:19.753Z,34.65
2017-12-04T00:03:50.869Z,34.60
2017-12-04T00:06:18.162Z,37.42
2017-12-04T00:08:50.191Z,36.15
2017-12-04T00:11:21.539Z,33.45
2017-12-04T00:13:51.256Z,43.85
2017-12-04T00:16:24.397Z,37.28
2017-12-04T00:18:59.492Z,38.58
2017-12-04T00:21:32.333Z,37.35
2017-12-04T00:24:07.281Z,37.80
2017-12-04T00:26:38.401Z,35.40
2017-12-04T00:29:05.363Z,40.58
2017-12-04T00:31:32.258Z,35.60
2017-12-04T00:33:59.893Z,38.00
2017-12-04T00:36:26.827Z,34.50
2017-12-04T00:38:53.711Z,37.08
2017-12-04T00:41:22.167Z,31.77
2017-12-04T00:43:51.480Z,38.13
2017-12-04T00:46:19.268Z,35.30
2017-12-04T00:48:46.209Z,34.17
2017-12-04T00:51:15.519Z,31.42
2017-12-04T00:53:44.343Z,38.22
2017-12-04T00:56:11.557Z,35.22
2017-12-04T00:58:38.640Z,34.50
2017-12-04T01:01:05.604Z,30.12
2017-12-04T01:03:32.948Z,37.83
2017-12-04T01:05:59.861Z,35.70
2017-12-04T01:08:29.950Z,32.67
2017-12-04T01:10:57.950Z,34.00
2017-12-04T01:13:24.902Z,31.58
2017-12-04T01:15:52.261Z,29.83
2017-12-04T01:18:19.191Z,38.78
2017-12-04T01:20:49.384Z,35.88
2017-12-04T01:23:17.520Z,35.30
2017-12-04T01:25:44.469Z,35.25
2017-12-04T01:28:11.467Z,35.25
2017-12-04T01:30:39.068Z,32.20
2017-12-04T01:33:06.019Z,38.35
2017-12-04T01:35:33.727Z,35.58
2017-12-04T01:38:03.394Z,33.63
2017-12-04T01:40:30.269Z,37.60
2017-12-04T01:42:57.307Z,34.38
2017-12-04T01:45:24.319Z,37.60
2017-12-04T01:47:51.235Z,37.17
2017-12-04T01:50:18.900Z,32.92
2017-12-04T01:52:46.562Z,32.22
2017-12-04T01:55:14.255Z,39.35
2017-12-04T01:57:41.191Z,42.20
2017-12-04T02:00:08.045Z,33.03
2017-12-04T02:02:35.004Z,37.72
2017-12-04T02:05:02.016Z,36.08
2017-12-04T02:07:29.004Z,33.85
2017-12-04T02:09:55.993Z,40.25
2017-12-04T02:12:22.941Z,39.78
2017-12-04T02:14:49.912Z,27.00
2017-12-04T02:17:17.609Z,32.58
2017-12-04T02:19:44.531Z,33.70
2017-12-04T02:22:11.611Z,31.15
2017-12-04T02:24:38.659Z,39.10
2017-12-04T02:27:05.723Z,34.60
2017-12-04T02:29:32.748Z,36.85
2017-12-04T02:31:59.671Z,32.13
2017-12-04T02:34:26.580Z,34.80
2017-12-04T02:36:54.381Z,30.92
2017-12-04T02:39:21.970Z,34.95
2017-12-04T02:41:51.211Z,31.65
2017-12-04T02:44:20.259Z,32.10
2017-12-04T02:46:47.313Z,35.80
2017-12-04T02:49:16.818Z,30.42
2017-12-04T02:51:46.081Z,35.47
2017-12-04T02:54:15.933Z,31.98
2017-12-04T02:56:42.995Z,32.92
2017-12-04T02:59:11.427Z,30.15
2017-12-04T03:01:38.471Z,35.83
2017-12-04T03:04:05.325Z,33.88
2017-12-04T03:06:32.289Z,33.53
2017-12-04T03:09:00.048Z,38.05
2017-12-04T03:11:26.916Z,35.65
2017-12-04T03:13:54.556Z,35.58
2017-12-04T03:16:22.388Z,36.85
2017-12-04T03:18:49.406Z,36.03
2017-12-04T03:21:16.455Z,36.67
2017-12-04T03:23:43.428Z,32.55
2017-12-04T03:26:10.447Z,34.70
2017-12-04T03:28:37.430Z,32.70
2017-12-04T03:31:04.469Z,38.65
2017-12-04T03:33:31.444Z,34.63
2017-12-04T03:35:58.455Z,31.58
2017-12-04T03:38:25.734Z,33.97
2017-12-04T03:40:53.774Z,31.90
2017-12-04T03:43:20.995Z,28.52
2017-12-04T03:45:49.027Z,33.47
2017-12-04T03:48:16.999Z,37.90
2017-12-04T03:50:44.033Z,36.47
2017-12-04T03:53:11.232Z,35.70
2017-12-04T03:55:39.297Z,35.90
2017-12-04T03:58:06.624Z,32.25
2017-12-04T04:00:34.120Z,39.75
2017-12-04T04:03:01.737Z,35.92
2017-12-04T04:05:28.691Z,30.05
2017-12-04T04:07:56.287Z,36.70
2017-12-04T04:10:24.431Z,30.83
2017-12-04T04:12:51.922Z,34.40
2017-12-04T04:15:19.505Z,36.38
2017-12-04T04:17:46.524Z,35.17
2017-12-04T04:20:13.447Z,40.78
2017-12-04T04:22:40.417Z,33.17
2017-12-04T04:25:07.331Z,36.40
2017-12-04T04:27:34.196Z,34.50
2017-12-04T04:30:01.155Z,35.83
2017-12-04T04:32:28.002Z,33.55
2017-12-04T04:34:54.946Z,32.58
2017-12-04T04:37:21.928Z,36.00
2017-12-04T04:39:48.899Z,37.00
2017-12-04T04:42:15.796Z,35.40
2017-12-04T04:44:43.480Z,37.42
2017-12-04T04:47:10.449Z,36.35
2017-12-04T04:49:37.363Z,34.08
2017-12-04T04:52:04.451Z,34.13
2017-12-04T04:54:31.495Z,34.15
2017-12-04T04:56:58.408Z,38.50
2017-12-04T04:59:26.259Z,35.55
2017-12-04T05:01:53.186Z,33.42
2017-12-04T05:04:20.155Z,32.90
2017-12-04T05:06:47.847Z,34.53
2017-12-04T05:09:15.884Z,36.85
2017-12-04T05:11:44.284Z,35.78
2017-12-04T05:14:11.227Z,36.67
2017-12-04T05:16:39.000Z,31.12
2017-12-04T05:19:06.004Z,30.83
2017-12-04T05:21:37.829Z,32.90
2017-12-04T05:24:07.175Z,30.55
2017-12-04T05:26:45.592Z,28.92
2017-12-04T05:29:24.463Z,39.15
2017-12-04T05:31:52.825Z,29.55
2017-12-04T05:34:21.501Z,33.35
2017-12-04T05:39:33.616Z,32.40
2017-12-04T05:42:00.820Z,29.45
2017-12-04T05:44:30.889Z,42.90
2017-12-04T05:47:01.982Z,34.03
2017-12-04T05:49:32.246Z,33.45
2017-12-04T05:52:02.934Z,31.77
2017-12-04T05:54:30.923Z,36.65
2017-12-04T05:56:59.322Z,27.77
2017-12-04T05:59:27.314Z,31.85
2017-12-04T06:01:54.393Z,33.50
2017-12-04T06:04:23.666Z,30.62
2017-12-04T06:06:51.257Z,34.22
2017-12-04T06:09:19.124Z,38.47
2017-12-04T06:11:48.214Z,28.80
2017-12-04T06:14:17.040Z,29.85
2017-12-04T06:16:44.000Z,27.87
2017-12-04T06:19:10.932Z,29.75
2017-12-04T06:21:39.744Z,30.92
2017-12-04T06:24:06.688Z,28.30
2017-12-04T06:26:33.535Z,33.40
2017-12-04T06:29:02.384Z,29.20
2017-12-04T06:31:30.688Z,32.55
2017-12-04T06:33:57.608Z,33.67
2017-12-04T06:36:24.520Z,27.75
2017-12-04T06:38:51.448Z,32.08
2017-12-04T06:41:22.657Z,29.23
2017-12-04T06:43:49.837Z,30.65
2017-12-04T06:46:16.756Z,33.78
2017-12-04T06:48:47.858Z,31.65
2017-12-04T06:51:15.729Z,31.02
2017-12-04T06:53:50.439Z,31.85
2017-12-04T06:56:20.974Z,29.83
2017-12-04T06:58:50.668Z,31.40
2017-12-04T07:01:19.201Z,30.12
2017-12-04T07:03:46.560Z,29.20
2017-12-04T07:06:14.195Z,43.58
2017-12-04T07:08:41.659Z,32.10
2017-12-04T07:11:18.429Z,31.95
2017-12-04T07:13:47.855Z,25.45
2017-12-04T07:16:17.468Z,31.12
2017-12-04T07:18:46.411Z,31.55
2017-12-04T07:21:15.341Z,34.75
2017-12-04T07:23:52.509Z,35.03
2017-12-04T07:26:19.525Z,32.53
2017-12-04T07:28:48.617Z,49.15
2017-12-04T07:31:15.480Z,46.65
2017-12-04T07:33:42.347Z,30.90
2017-12-04T07:36:09.309Z,29.85
2017-12-04T07:38:38.556Z,27.25
2017-12-04T07:41:05.548Z,31.50
2017-12-04T07:43:32.488Z,33.40
2017-12-04T07:45:59.433Z,32.55
2017-12-04T07:48:26.308Z,30.48
2017-12-04T07:50:53.203Z,28.77
2017-12-04T07:53:20.141Z,33.58
2017-12-04T07:55:47.089Z,30.83
2017-12-04T07:58:14.462Z,30.85
2017-12-04T08:00:43.840Z,37.83
2017-12-04T08:03:11.162Z,31.50
2017-12-04T08:05:38.269Z,31.30
2017-12-04T08:08:05.268Z,31.08
2017-12-04T08:10:32.180Z,31.30
2017-12-04T08:13:00.886Z,34.72
2017-12-04T08:15:37.134Z,28.05
2017-12-04T08:18:08.379Z,29.65
2017-12-04T08:20:39.115Z,26.73
2017-12-04T08:23:14.226Z,31.40
2017-12-04T08:25:45.366Z,32.17
2017-12-04T08:28:17.678Z,25.95
2017-12-04T08:30:48.933Z,32.55
2017-12-04T08:33:20.830Z,25.62
2017-12-04T08:35:57.654Z,29.30
2017-12-04T08:38:30.232Z,29.10
2017-12-04T08:41:02.893Z,22.87
2017-12-04T08:43:31.929Z,29.25
2017-12-04T08:46:03.565Z,28.92
2017-12-04T08:48:39.297Z,31.60
2017-12-04T08:51:16.021Z,30.37
2017-12-04T08:53:45.394Z,31.45
2017-12-04T08:56:14.206Z,31.83
2017-12-04T08:58:41.821Z,30.17
2017-12-04T09:01:08.809Z,28.52
2017-12-04T09:03:36.504Z,24.95
2017-12-04T09:06:03.418Z,25.85
2017-12-04T09:08:31.240Z,30.30
2017-12-04T09:10:58.147Z,25.83
2017-12-04T09:13:25.044Z,24.17
2017-12-04T09:15:51.983Z,30.17
2017-12-04T09:18:18.955Z,28.73
2017-12-04T09:20:45.968Z,28.58
2017-12-04T09:23:12.969Z,24.65
2017-12-04T09:25:40.787Z,27.90
2017-12-04T09:28:07.714Z,27.50
2017-12-04T09:30:34.728Z,26.12
2017-12-04T09:33:02.386Z,27.42
2017-12-04T09:35:29.383Z,22.33
2017-12-04T09:37:56.296Z,28.52
2017-12-04T09:40:23.238Z,25.33
2017-12-04T09:42:50.195Z,28.77
2017-12-04T09:45:17.086Z,26.83
2017-12-04T09:47:44.044Z,30.10
2017-12-04T09:50:11.047Z,32.65
2017-12-04T09:52:38.020Z,30.62
2017-12-04T09:55:04.935Z,24.35
2017-12-04T09:57:31.957Z,24.63
2017-12-04T09:59:59.600Z,27.08
2017-12-04T10:02:26.595Z,26.48
2017-12-04T10:04:53.842Z,22.98
2017-12-04T10:07:21.715Z,24.37
2017-12-04T10:09:48.920Z,28.98
2017-12-04T10:12:16.027Z,21.35
2017-12-04T10:14:42.944Z,27.13
2017-12-04T10:17:10.236Z,27.85
2017-12-04T10:19:39.476Z,23.92
2017-12-04T10:22:07.872Z,22.08
2017-12-04T10:24:34.848Z,24.67
2017-12-04T10:27:03.044Z,23.87
2017-12-04T10:29:29.929Z,22.87
2017-12-04T10:31:57.653Z,27.30
2017-12-04T10:34:26.264Z,23.15
2017-12-04T10:36:54.707Z,21.45
2017-12-04T10:39:23.023Z,29.23
2017-12-04T10:41:54.744Z,25.20
2017-12-04T10:44:21.709Z,29.77
2017-12-04T10:46:50.661Z,21.70
2017-12-04T10:49:17.540Z,27.02
2017-12-04T10:51:48.076Z,19.40
2017-12-04T10:54:20.192Z,24.75
2017-12-04T10:56:48.412Z,21.12
2017-12-04T10:59:16.803Z,24.45
2017-12-04T11:01:50.471Z,25.70
2017-12-04T11:04:28.146Z,25.00
2017-12-04T11:07:03.149Z,21.35
2017-12-04T11:09:42.026Z,22.98
2017-12-04T11:12:20.039Z,24.23
2017-12-04T11:14:52.481Z,25.30
2017-12-04T11:17:25.663Z,22.85
2017-12-04T11:19:54.725Z,22.10
2017-12-04T11:22:23.695Z,22.05
2017-12-04T11:24:57.328Z,23.70
2017-12-04T11:27:27.210Z,20.50
2017-12-04T11:29:54.188Z,25.48
2017-12-04T11:32:21.087Z,23.23
2017-12-04T11:34:48.088Z,25.12
2017-12-04T11:37:14.994Z,26.80
2017-12-04T11:39:42.024Z,21.10
2017-12-04T11:42:11.530Z,23.40
2017-12-04T11:44:38.501Z,21.02
2017-12-04T11:47:05.421Z,18.58
2017-12-04T11:49:36.120Z,26.20
2017-12-04T11:52:03.312Z,20.80
2017-12-04T11:54:33.544Z,23.60
2017-12-04T11:57:00.495Z,21.02
2017-12-04T11:59:29.483Z,24.17
2017-12-04T12:01:56.414Z,23.42
2017-12-04T12:04:24.025Z,22.30
2017-12-04T12:06:51.235Z,17.98
2017-12-04T12:09:18.849Z,25.55
2017-12-04T12:11:45.841Z,24.87
2017-12-04T12:14:13.600Z,21.35
2017-12-04T12:16:42.434Z,20.58
2017-12-04T12:19:09.336Z,24.30
2017-12-04T12:21:52.422Z,23.67
2017-12-04T12:24:21.113Z,21.58
2017-12-04T12:26:52.194Z,21.02
2017-12-04T12:29:33.559Z,23.65
2017-12-04T12:32:04.071Z,21.35
2017-12-04T12:34:30.966Z,26.48
2017-12-04T12:37:00.201Z,22.90
2017-12-04T12:39:27.180Z,20.25
2017-12-04T12:41:54.392Z,29.35
2017-12-04T12:44:21.330Z,22.17
2017-12-04T12:46:50.452Z,24.55
2017-12-04T12:49:17.660Z,19.95
2017-12-04T12:51:46.622Z,25.88
2017-12-04T12:54:17.686Z,22.20
2017-12-04T12:56:44.788Z,25.55
2017-12-04T12:59:11.740Z,20.05
2017-12-04T13:01:46.025Z,22.55
2017-12-04T13:04:18.508Z,18.75
2017-12-04T13:06:47.727Z,22.98
2017-12-04T13:09:14.641Z,23.92
2017-12-04T13:11:42.697Z,21.27
2017-12-04T13:14:10.576Z,21.70
2017-12-04T13:16:37.590Z,22.02
2017-12-04T13:19:04.611Z,20.02
2017-12-04T13:21:33.597Z,19.05
2017-12-04T13:24:00.536Z,22.85
2017-12-04T13:26:29.312Z,20.35
2017-12-04T13:28:56.198Z,21.25
2017-12-04T13:31:24.938Z,22.65
2017-12-04T13:34:04.242Z,22.75
2017-12-04T13:36:55.219Z,22.27
2017-12-04T13:39:23.026Z,24.40
2017-12-04T13:41:54.064Z,22.52
2017-12-04T13:44:23.220Z,25.33
2017-12-04T13:46:50.175Z,20.92
2017-12-04T13:49:17.047Z,20.50
2017-12-04T13:51:50.384Z,20.12
2017-12-04T13:54:17.610Z,19.17
2017-12-04T13:56:46.026Z,21.37
2017-12-04T13:59:16.474Z,21.48
2017-12-04T14:01:46.371Z,19.98
2017-12-04T14:04:14.780Z,22.50
2017-12-04T14:06:42.510Z,22.85
2017-12-04T14:09:09.386Z,21.75
2017-12-04T14:11:38.992Z,20.15
2017-12-04T14:14:05.915Z,25.35
2017-12-04T14:16:32.845Z,23.77
2017-12-04T14:19:01.500Z,20.85
2017-12-04T14:21:28.551Z,21.10
2017-12-04T14:23:55.679Z,27.73
2017-12-04T14:26:22.559Z,26.85
2017-12-04T14:28:51.314Z,21.70
2017-12-04T14:31:20.077Z,20.85
2017-12-04T14:33:46.977Z,23.15
2017-12-04T14:36:14.638Z,25.45
2017-12-04T14:38:41.555Z,20.15
2017-12-04T14:41:11.139Z,19.15
2017-12-04T14:43:38.108Z,22.67
2017-12-04T14:46:04.996Z,20.12
2017-12-04T14:48:33.155Z,21.70
2017-12-04T14:51:01.796Z,24.30
2017-12-04T14:53:31.487Z,22.87
2017-12-04T14:55:58.606Z,23.45
2017-12-04T14:58:39.064Z,20.90
2017-12-04T15:01:09.821Z,21.80
2017-12-04T15:03:38.719Z,20.65
2017-12-04T15:06:05.772Z,18.08
2017-12-04T15:08:32.777Z,18.50
2017-12-04T15:11:12.203Z,19.27
2017-12-04T15:13:48.648Z,23.60
2017-12-04T15:16:17.082Z,20.83
2017-12-04T15:18:56.992Z,21.10
2017-12-04T15:21:33.458Z,20.37
2017-12-04T15:24:14.383Z,22.73
2017-12-04T15:29:31.003Z,23.35
2017-12-04T15:31:58.567Z,23.10
2017-12-04T15:34:31.235Z,21.05
2017-12-04T15:37:10.271Z,18.62
2017-12-04T15:39:42.816Z,26.08
2017-12-04T15:42:11.528Z,18.33
2017-12-04T15:44:39.507Z,24.05
2017-12-04T15:47:08.699Z,20.15
2017-12-04T15:49:39.892Z,17.00
2017-12-04T15:52:06.987Z,18.25
2017-12-04T15:54:34.244Z,21.83
2017-12-04T15:57:03.036Z,22.25
2017-12-04T15:59:30.628Z,22.85
2017-12-04T16:01:57.648Z,21.67
2017-12-04T16:04:24.640Z,21.77
2017-12-04T16:06:58.417Z,21.60
2017-12-04T16:09:31.690Z,19.73
2017-12-04T16:12:00.461Z,19.40
2017-12-04T16:14:31.615Z,16.92
2017-12-04T16:16:58.599Z,25.70
2017-12-04T16:19:26.349Z,16.05
2017-12-04T16:21:54.555Z,23.38
2017-12-04T16:24:32.712Z,17.55
2017-12-04T16:27:00.557Z,18.33
2017-12-04T16:29:37.130Z,21.35
2017-12-04T16:32:04.374Z,18.23
2017-12-04T16:34:32.178Z,19.95
2017-12-04T16:37:09.623Z,19.90
2017-12-04T16:39:36.522Z,17.50
2017-12-04T16:42:05.268Z,21.62
2017-12-04T16:44:35.568Z,17.45
2017-12-04T16:47:03.371Z,17.50
2017-12-04T16:49:31.056Z,19.33
2017-12-04T16:52:03.900Z,21.35
2017-12-04T16:54:35.404Z,19.23
2017-12-04T16:57:07.264Z,19.27
2017-12-04T16:59:36.431Z,18.80
2017-12-04T17:02:03.844Z,24.60
2017-12-04T17:04:30.756Z,21.67
2017-12-04T17:07:01.930Z,20.88
2017-12-04T17:09:32.785Z,24.40
2017-12-04T17:12:00.315Z,18.42
2017-12-04T17:14:33.514Z,17.65
2017-12-04T17:17:02.830Z,15.85
2017-12-04T17:19:38.408Z,18.70
2017-12-04T17:22:06.761Z,17.90
2017-12-04T17:24:36.267Z,20.00
2017-12-04T17:27:09.711Z,19.42
2017-12-04T17:29:43.461Z,18.90
2017-12-04T17:32:12.318Z,21.30
2017-12-04T17:34:43.386Z,19.48
2017-12-04T17:37:10.376Z,26.15
2017-12-04T17:39:43.307Z,17.87
2017-12-04T17:45:06.653Z,17.70
2017-12-04T17:47:38.493Z,20.17
2017-12-04T17:52:50.375Z,17.70
2017-12-04T17:55:17.660Z,23.25
2017-12-04T17:57:44.577Z,20.60
2017-12-04T18:00:11.627Z,22.55
2017-12-04T18:02:38.604Z,20.52
2017-12-04T18:05:05.580Z,21.00
2017-12-04T18:07:32.608Z,21.52
2017-12-04T18:09:59.706Z,23.80
2017-12-04T18:12:26.637Z,21.10
2017-12-04T18:14:53.624Z,21.62
2017-12-04T18:17:21.356Z,18.85
2017-12-04T18:19:48.367Z,22.92
2017-12-04T18:22:15.343Z,18.83
2017-12-04T18:24:42.387Z,21.08
2017-12-04T18:27:09.491Z,25.25
2017-12-04T18:29:37.272Z,24.27
2017-12-04T18:32:04.256Z,23.23
2017-12-04T18:34:31.398Z,28.62
2017-12-04T18:36:58.380Z,22.10
2017-12-04T18:39:25.390Z,19.40
2017-12-04T18:41:52.416Z,18.70
2017-12-04T18:44:19.480Z,26.00
2017-12-04T18:46:46.476Z,18.90
2017-12-04T18:49:13.434Z,21.45
2017-12-04T18:51:41.287Z,23.30
2017-12-04T18:54:08.292Z,24.75
2017-12-04T18:56:36.395Z,21.05
2017-12-04T18:59:03.372Z,18.92
2017-12-04T19:01:30.423Z,19.77
2017-12-04T19:03:58.141Z,17.77
2017-12-04T19:06:25.196Z,22.13
2017-12-04T19:08:52.141Z,23.90
2017-12-04T19:11:20.358Z,20.52
2017-12-04T19:13:48.176Z,20.23
2017-12-04T19:16:15.159Z,21.30
2017-12-04T19:18:43.020Z,22.05
2017-12-04T19:21:17.443Z,25.37
2017-12-04T19:23:47.460Z,24.23
2017-12-04T19:26:14.510Z,26.00
2017-12-04T19:28:41.555Z,27.85
2017-12-04T19:31:08.512Z,23.67
2017-12-04T19:33:37.097Z,25.42
2017-12-04T19:36:04.288Z,24.92
2017-12-04T19:38:31.309Z,24.75
2017-12-04T19:40:59.032Z,22.87
2017-12-04T19:43:26.145Z,21.02
2017-12-04T19:45:53.211Z,21.83
2017-12-04T19:48:20.280Z,27.90
2017-12-04T19:50:47.329Z,27.02
2017-12-04T19:53:14.786Z,22.85
2017-12-04T19:55:41.931Z,21.08
2017-12-04T19:58:09.128Z,26.30
2017-12-04T20:00:37.816Z,21.20
2017-12-04T20:03:06.715Z,22.62
2017-12-04T20:05:36.822Z,24.65
2017-12-04T20:08:04.137Z,18.73
2017-12-04T20:10:32.747Z,23.12
2017-12-04T20:12:59.834Z,27.25
2017-12-04T20:15:28.508Z,23.83
2017-12-04T20:17:55.855Z,20.35
2017-12-04T20:20:23.797Z,25.55
2017-12-04T20:22:50.972Z,21.67
2017-12-04T20:25:18.792Z,20.15
2017-12-04T20:27:48.506Z,24.23
2017-12-04T20:30:15.643Z,23.95
2017-12-04T20:32:44.257Z,32.38
2017-12-04T20:35:13.685Z,26.00
2017-12-04T20:37:40.697Z,25.75
2017-12-04T20:40:08.431Z,30.95
2017-12-04T20:42:36.871Z,27.15
2017-12-04T20:45:05.297Z,26.80
2017-12-04T20:47:32.772Z,24.63
2017-12-04T20:49:59.843Z,26.73
2017-12-04T20:52:31.647Z,26.90
2017-12-04T20:55:00.978Z,29.42
2017-12-04T20:57:30.167Z,27.10
2017-12-04T20:59:59.426Z,35.58
2017-12-04T21:02:29.378Z,28.00
2017-12-04T21:04:58.576Z,28.02
2017-12-04T21:07:27.742Z,21.95
2017-12-04T21:10:07.823Z,25.92
2017-12-04T21:12:35.916Z,25.77
2017-12-04T21:15:14.927Z,23.67
2017-12-04T21:17:41.932Z,27.83
2017-12-04T21:20:08.896Z,27.00
2017-12-04T21:22:36.728Z,28.67
2017-12-04T21:25:03.796Z,31.08
2017-12-04T21:27:30.847Z,32.92
2017-12-04T21:29:57.940Z,24.77
2017-12-04T21:32:24.914Z,24.50
2017-12-04T21:35:04.864Z,23.90
2017-12-04T21:37:40.222Z,27.42
2017-12-04T21:40:20.091Z,26.85
2017-12-04T21:42:57.648Z,26.25
2017-12-04T21:45:38.402Z,31.52
2017-12-04T21:48:11.909Z,27.95
2017-12-04T21:50:49.482Z,25.12
2017-12-04T21:53:26.381Z,25.52
2017-12-04T21:55:57.820Z,28.40
2017-12-04T21:58:38.522Z,23.98
2017-12-04T22:01:18.015Z,30.88
2017-12-04T22:03:54.806Z,22.65
2017-12-04T22:06:34.424Z,31.58
2017-12-04T22:09:07.330Z,28.08
2017-12-04T22:11:44.343Z,28.98
2017-12-04T22:14:17.457Z,28.33
2017-12-04T22:16:51.772Z,30.98
2017-12-04T22:19:27.165Z,22.95
2017-12-04T22:22:00.614Z,25.45
2017-12-04T22:24:34.945Z,23.35
2017-12-04T22:27:13.570Z,21.55
2017-12-04T22:29:53.979Z,25.37
2017-12-04T22:32:30.408Z,27.25
2017-12-04T22:35:02.091Z,31.17
2017-12-04T22:37:38.446Z,24.23
2017-12-04T22:40:15.664Z,23.48
2017-12-04T22:42:49.208Z,22.17
2017-12-04T22:45:23.676Z,27.13
2017-12-04T22:48:05.207Z,26.25
2017-12-04T22:50:40.409Z,26.02
2017-12-04T22:53:13.176Z,28.12
2017-12-04T22:55:43.074Z,24.40
2017-12-04T22:58:14.525Z,28.20
2017-12-04T23:00:45.596Z,25.77
2017-12-04T23:03:26.852Z,25.30
2017-12-04T23:06:03.076Z,31.67
2017-12-04T23:08:36.607Z,30.67
2017-12-04T23:11:08.126Z,29.58
2017-12-04T23:13:38.369Z,30.30
2017-12-04T23:16:06.647Z,25.98
2017-12-04T23:18:35.215Z,29.92
2017-12-04T23:21:03.578Z,28.15
2017-12-04T23:23:33.023Z,30.02
2017-12-04T23:26:13.723Z,27.33
2017-12-04T23:28:44.008Z,29.37
2017-12-04T23:31:14.927Z,31.92
2017-12-04T23:33:53.846Z,28.08
2017-12-04T23:39:09.579Z,26.85
2017-12-04T23:41:39.748Z,27.80
2017-12-04T23:44:10.458Z,26.52
2017-12-04T23:46:52.096Z,28.58
2017-12-04T23:49:25.869Z,27.42
2017-12-04T23:52:04.990Z,29.40
2017-12-04T23:54:36.669Z,29.15
2017-12-04T23:57:08.670Z,29.92
2017-12-04T23:59:40.954Z,30.33
